Terminal Aerodrome Forecast
Issued by NWS

Home | Current Version | Previous Version | Text Only | Print | Product List | Glossary On
Versions: 1 2 3 4 5 6 7 8 9 10 11 12 13 14
000
FTAK31 PAJN 230500
TAFAPG
TAF
PAPG 230521Z 2306/2406 VRB03KT P6SM VCSH SCT025 OVC035
      TEMPO 2306/2310 -SHRA OVC025
     FM231500 VRB03KT P6SM BKN060
     FM231800 05005KT P6SM SCT050 BKN100
     FM240300 VRB05KT P6SM SCT100
      AMD LTD TO CLD VIS AND WIND 2306/2315=

USA.gov is the U.S. government's official web portal to all federal, state and local government web resources and services.